Time;durP1;ratioP1;P1;durP2;ratioP2;P2;SDS_P1;SDS_P2;PMS_P1;PMS_P2;Temp;Humidity;BMP_temperature;BMP_pressure;BME280_temperature;BME280_humidity;BME280_pressure;Samples;Min_cycle;Max_cycle;Signal;HPM_P1;HPM_P2
2022/04/02 06:25:30;;;;;;;5.77;4.60;;;3.10;91.50;;;3.48;63.56;97745.94;6023390;23;98239;31
2022/04/02 06:31:59;;;;;;;5.40;4.20;;;2.10;91.30;;;3.45;63.95;97752.00;4903206;28;115012;-75
2022/04/02 06:38:08;;;;;;;3.80;3.40;;;1.20;90.80;;;3.57;63.82;97758.94;4902463;28;124714;-77
2022/04/02 07:12:54;;;;;;;5.03;4.57;;;1.90;91.20;;;3.85;63.90;97798.22;4963683;28;115672;-76
2022/04/02 07:19:03;;;;;;;4.77;4.10;;;2.70;91.40;;;3.79;63.76;97802.09;4944330;28;124851;-77
2022/04/02 07:25:13;;;;;;;5.30;4.10;;;3.00;91.50;;;3.73;63.73;97818.59;4944131;28;115330;-76
2022/04/02 07:31:22;;;;;;;5.17;4.77;;;3.30;91.60;;;3.65;63.59;97837.50;4943419;28;124971;-76
2022/04/02 07:57:15;;;;;;;5.17;4.70;;;3.00;91.40;;;3.39;63.31;97873.31;5572345;23;98839;-81
2022/04/02 08:03:24;;;;;;;4.73;3.83;;;2.40;91.30;;;3.32;64.12;97876.34;4943004;28;124996;-79
2022/04/02 08:09:34;;;;;;;5.07;4.50;;;0.90;90.90;;;3.34;63.66;97884.28;4941595;28;115268;-77
2022/04/02 08:15:43;;;;;;;4.33;3.87;;;2.10;91.30;;;3.46;63.86;97892.88;4943233;28;124989;-76
2022/04/02 08:21:51;;;;;;;4.53;4.13;;;1.80;91.20;;;3.47;63.65;97908.16;4943385;28;115251;-77
2022/04/02 08:25:00;;;;;;;4.70;4.30;;;1.60;91.80;;;3.47;63.89;97910.91;4943209;28;114577;-80
2022/04/02 08:31:22;;;;;;;6.20;4.23;;;3.20;91.60;;;3.50;63.56;97913.06;4942819;28;124681;-77
2022/04/02 08:38:09;;;;;;;5.20;4.70;;;1.50;90.80;;;3.49;63.04;97926.97;4943314;28;114907;-79
2022/04/02 09:51:00;;;;;;;6.00;5.40;;;3.00;91.10;;;3.38;63.17;98027.28;6059885;23;99344;31
2022/04/02 09:57:46;;;;;;;6.70;5.93;;;2.30;90.80;;;3.46;62.77;98031.31;4902550;28;116316;-91
2022/04/02 10:01:11;;;;;;;8.80;6.20;;;1.10;91.20;;;3.48;62.56;98023.66;4902210;28;114587;-77
2022/04/02 10:08:00;;;;;;;7.80;6.30;;;3.00;90.90;;;3.45;62.08;98035.97;4902953;28;124752;-76
2022/04/02 10:14:10;;;;;;;6.30;5.13;;;0.90;89.60;;;3.35;62.18;98046.97;4903095;28;114816;-77
2022/04/02 11:36:46;;;;;;;7.00;6.20;;;3.10;90.40;;;3.47;61.95;98115.69;5618414;23;98755;-85
2022/04/02 11:43:00;;;;;;;6.10;5.50;;;2.00;90.10;;;3.66;61.53;98115.84;4959914;28;115379;-76
2022/04/02 11:49:12;;;;;;;9.17;6.70;;;1.10;89.30;;;3.50;62.32;98128.78;4962872;28;124927;-76
2022/04/02 11:55:22;;;;;;;7.93;6.63;;;2.50;90.40;;;3.49;62.89;98127.16;4982281;28;116239;-77
2022/04/02 12:01:49;;;;;;;9.47;6.53;;;0.80;89.90;;;3.49;62.18;98127.16;4967495;28;124943;-78
2022/04/02 12:07:58;;;;;;;7.83;6.73;;;3.10;90.80;;;3.56;62.57;98136.94;4982326;28;115280;-76
2022/04/02 12:14:10;;;;;;;9.30;6.50;;;1.20;90.10;;;3.67;62.45;98150.25;4962917;28;125003;-83
2022/04/02 12:20:46;;;;;;;8.43;6.97;;;2.00;90.50;;;3.71;62.41;98159.53;4960473;28;115209;-87
2022/04/02 12:23:17;;;;;;;8.73;7.17;;;2.10;90.50;;;3.71;62.35;98147.78;4943900;28;114406;-84
2022/04/02 12:29:27;;;;;;;7.43;6.63;;;2.10;90.30;;;3.76;62.09;98158.66;4981152;28;124761;-77
2022/04/02 12:31:55;;;;;;;7.80;6.80;;;2.00;90.80;;;3.80;62.24;98167.94;4962692;28;113847;-88
2022/04/02 12:34:28;;;;;;;10.17;7.70;;;3.40;91.50;;;3.82;61.73;98168.47;4940934;28;113710;-86
2022/04/02 12:40:41;;;;;;;7.63;6.83;;;1.60;90.10;;;3.82;62.09;98182.13;4956282;28;123792;-87
2022/04/02 12:43:30;;;;;;;7.07;5.90;;;5.60;92.20;;;3.84;62.38;98188.13;4945714;28;113034;-87
2022/04/02 12:50:12;;;;;;;11.27;9.20;;;3.40;90.70;;;3.89;61.81;98187.25;4979591;28;124915;-86
2022/04/02 12:56:26;;;;;;;10.90;7.37;;;3.30;90.40;;;3.78;61.79;98202.91;4960599;28;116209;-85
2022/04/02 12:59:33;;;;;;;9.03;6.90;;;5.80;91.80;;;3.89;61.60;98201.72;4955364;28;114066;-86
2022/04/02 13:05:54;;;;;;;9.77;8.20;;;1.70;90.10;;;3.87;62.17;98214.03;4979130;28;124108;-87
2022/04/02 13:09:05;;;;;;;10.13;8.43;;;3.30;91.10;;;3.86;62.22;98210.50;4977767;28;114148;-85
2022/04/02 13:15:34;;;;;;;9.03;7.60;;;1.30;89.70;;;3.80;62.44;98216.28;4964287;28;125094;-88
2022/04/02 13:25:00;;;;;;;7.40;6.33;;;1.80;90.10;;;3.85;62.27;98224.47;4961331;28;114721;-88
2022/04/02 13:28:11;;;;;;;8.37;7.23;;;1.60;90.30;;;3.89;62.15;98237.25;4945417;28;124684;-87
2022/04/02 13:31:16;;;;;;;9.83;7.23;;;1.20;90.20;;;3.86;62.75;98232.38;4941758;28;124211;-83
2022/04/02 13:33:44;;;;;;;9.63;7.63;;;3.40;91.10;;;3.82;63.02;98239.50;4961848;28;114310;-88
2022/04/02 13:36:38;;;;;;;9.43;7.07;;;2.80;91.80;;;3.83;62.69;98246.59;4961953;28;113751;-88
2022/04/02 13:39:12;;;;;;;7.80;7.00;;;3.30;91.20;;;3.81;62.87;98246.06;4959240;28;123633;-87
2022/04/02 13:42:21;;;;;;;11.07;8.30;;;5.20;92.20;;;3.93;63.04;98248.47;4957573;28;122370;-88
2022/04/02 13:45:27;;;;;;;36.13;20.63;;;2.50;91.00;;;3.95;62.73;98247.09;4955821;28;114833;-88
2022/04/02 13:48:06;;;;;;;15.30;10.53;;;3.30;91.30;;;3.92;62.96;98252.28;4943502;28;112838;-87
2022/04/02 13:50:57;;;;;;;15.83;9.13;;;3.70;91.50;;;3.90;62.80;98255.31;4944265;28;122891;-86
2022/04/02 13:57:15;;;;;;;8.47;7.57;;;1.60;90.50;;;3.86;62.76;98259.69;4978115;28;116271;-81
2022/04/02 14:07:08;;;;;;;9.80;6.63;;;2.70;91.00;;;3.97;62.80;98260.44;4960591;28;124712;-78
2022/04/02 14:13:20;;;;;;;13.50;8.30;;;2.00;90.60;;;4.01;63.01;98272.47;4961284;28;114935;-87
2022/04/02 14:20:00;;;;;;;8.37;7.30;;;1.60;90.30;;;4.01;62.59;98277.13;4980769;28;124989;-75
2022/04/02 14:30:05;;;;;;;8.23;7.20;;;1.70;90.40;;;4.13;62.57;98274.84;4979817;28;124986;-76
2022/04/02 14:37:02;;;;;;;11.03;8.73;;;3.70;91.10;;;4.06;62.59;98282.56;4980140;28;116602;-74
2022/04/02 14:52:06;;;;;;;10.90;9.53;;;3.40;91.00;;;3.80;62.77;98295.53;5865455;23;98846;-77
2022/04/02 14:55:29;;;;;;;9.43;8.43;;;1.40;90.20;;;3.83;63.02;98303.97;4938358;28;124595;-80
2022/04/02 15:02:20;;;;;;;13.23;9.83;;;1.90;90.50;;;3.88;62.62;98305.88;4960123;28;116270;-74
2022/04/02 15:09:06;;;;;;;8.73;7.57;;;3.20;91.10;;;3.98;62.68;98316.75;4960233;28;125033;-74
2022/04/02 15:15:17;;;;;;;11.40;10.20;;;2.30;90.70;;;4.02;62.76;98333.41;4960556;28;115211;-73
2022/04/02 15:21:26;;;;;;;8.53;7.63;;;3.60;91.20;;;4.11;63.00;98327.06;4962922;28;124961;-74
2022/04/02 15:27:55;;;;;;;9.33;7.60;;;3.70;91.30;;;4.32;62.27;98335.97;4963812;28;117234;-74
2022/04/02 15:34:08;;;;;;;11.10;9.07;;;3.80;91.10;;;4.30;62.49;98337.34;4962890;28;125031;-74
2022/04/02 16:24:16;;;;;;;11.57;8.40;;;3.80;91.20;;;4.23;62.53;98388.81;6027267;23;98102;31
2022/04/02 16:30:29;;;;;;;10.60;8.27;;;2.70;90.80;;;4.28;62.70;98399.72;4923411;28;114938;-76
2022/04/02 16:33:23;;;;;;;10.77;7.93;;;3.80;91.90;;;4.29;63.02;98399.41;4922501;28;125827;-75
2022/04/02 17:51:07;;;;;;;12.17;8.40;;;3.70;91.20;;;4.19;62.95;98511.56;5471589;23;98840;-82
2022/04/02 17:57:15;;;;;;;8.90;6.90;;;2.50;90.90;;;4.20;63.43;98514.03;4960644;28;117031;-76
2022/04/02 18:03:44;;;;;;;8.87;6.30;;;2.60;90.90;;;4.27;62.68;98519.22;4960925;28;125003;-76
2022/04/02 18:09:54;;;;;;;6.50;5.40;;;1.40;90.30;;;4.29;62.87;98529.88;4961099;28;115240;-77
2022/04/02 18:16:06;;;;;;;6.50;5.83;;;3.90;91.30;;;4.31;62.85;98549.56;4960809;28;125013;-75
2022/04/02 18:22:16;;;;;;;8.13;6.83;;;2.60;90.80;;;4.29;62.94;98554.47;4961003;28;115220;-75
2022/04/02 18:28:25;;;;;;;10.80;7.30;;;3.80;91.30;;;4.28;62.54;98561.88;4960327;28;124980;-76
2022/04/02 18:34:34;;;;;;;8.10;7.00;;;1.80;90.50;;;4.31;62.57;98565.97;4960873;28;115384;-77
2022/04/02 19:30:21;;;;;;;5.90;5.10;;;3.80;91.40;;;4.28;62.54;98635.72;5842790;23;98418;-78
2022/04/02 19:36:35;;;;;;;8.67;6.63;;;1.90;90.50;;;4.21;62.93;98638.72;4944176;28;114837;-78
2022/04/02 20:31:30;;;;;;;6.80;5.50;;;3.80;91.50;;;4.35;62.92;98681.91;5722031;23;98644;-82
2022/04/02 20:37:40;;;;;;;5.80;4.93;;;1.50;90.50;;;4.35;62.69;98681.91;4948017;28;115341;-87
2022/04/02 20:43:50;;;;;;;6.80;5.00;;;2.60;90.90;;;4.26;62.79;98687.13;4974444;28;124317;-77
2022/04/02 20:46:55;;;;;;;5.27;4.77;;;2.80;91.70;;;4.32;62.75;98694.22;4964363;28;123425;-79
2022/04/02 20:49:59;;;;;;;7.43;5.50;;;2.40;90.80;;;4.30;63.20;98696.44;4947956;28;115186;-80
2022/04/02 20:56:20;;;;;;;5.90;5.10;;;2.20;90.80;;;4.27;62.86;98686.03;4961487;28;125087;-81
2022/04/02 21:02:29;;;;;;;5.40;4.30;;;1.80;90.70;;;4.28;62.57;98704.06;4966670;28;115330;-76
2022/04/02 21:08:38;;;;;;;6.57;4.90;;;3.00;91.10;;;4.21;63.04;98707.06;4981130;28;126485;-77
2022/04/02 21:11:08;;;;;;;5.17;4.43;;;1.50;90.90;;;4.21;63.17;98698.06;4981556;28;125854;-75
2022/04/02 21:17:26;;;;;;;5.13;3.97;;;3.00;91.10;;;4.24;62.98;98702.16;4980462;28;114999;-75
2022/04/02 21:23:36;;;;;;;5.90;5.30;;;3.80;91.40;;;4.16;63.25;98703.50;4981303;28;124762;-76
2022/04/02 21:29:45;;;;;;;6.23;5.63;;;2.30;90.80;;;4.06;63.05;98700.81;4981377;28;114744;-76
2022/04/02 21:35:53;;;;;;;11.43;5.93;;;3.50;91.40;;;4.14;63.43;98716.66;4953622;28;124792;-78
2022/04/02 22:19:02;;;;;;;4.07;3.63;;;2.90;91.20;;;4.19;62.89;98738.50;4922233;28;124682;-74
2022/04/02 22:25:10;;;;;;;5.20;4.50;;;3.00;91.20;;;4.12;63.40;98746.19;4922204;28;114934;-78
2022/04/02 22:31:19;;;;;;;5.83;5.03;;;2.70;91.20;;;4.01;63.33;98741.78;4922120;28;124711;-75
